Time;durP1;ratioP1;P1;durP2;ratioP2;P2;SDS_P1;SDS_P2;PMS_P1;PMS_P2;Temp;Humidity;BMP_temperature;BMP_pressure;BME280_temperature;BME280_humidity;BME280_pressure;Samples;Min_cycle;Max_cycle;Signal;HPM_P1;HPM_P2
2021/03/11 00:00:10;;;;;;;18.30;10.73;;;9.60;89.20;;;;;;5030825;28;20465;-80
2021/03/11 00:02:37;;;;;;;15.20;10.60;;;9.50;88.90;;;;;;5032157;28;20444;-79
2021/03/11 00:05:06;;;;;;;16.20;10.60;;;9.50;88.70;;;;;;5018676;28;20466;-79
2021/03/11 00:07:33;;;;;;;17.37;10.80;;;9.50;88.80;;;;;;5011656;28;20526;-80
2021/03/11 00:10:00;;;;;;;14.37;9.67;;;9.50;88.60;;;;;;5011474;28;20461;-80
2021/03/11 00:12:26;;;;;;;16.93;10.57;;;9.40;88.60;;;;;;5030633;28;20535;-80
2021/03/11 00:14:52;;;;;;;16.97;10.90;;;9.60;88.70;;;;;;5031623;28;20450;-81
2021/03/11 00:17:19;;;;;;;15.33;10.70;;;9.50;88.70;;;;;;5032387;28;20481;-81
2021/03/11 00:19:45;;;;;;;13.03;9.47;;;9.60;88.90;;;;;;5031048;28;20522;-81
2021/03/11 00:22:12;;;;;;;15.47;10.40;;;9.60;88.80;;;;;;5032968;28;20450;-81
2021/03/11 00:24:38;;;;;;;13.67;9.43;;;9.60;88.70;;;;;;5031637;28;20458;-81
2021/03/11 00:27:05;;;;;;;18.07;11.33;;;9.60;88.50;;;;;;5032431;28;20543;-81
2021/03/11 00:29:32;;;;;;;16.03;10.87;;;9.70;88.80;;;;;;5030412;28;21073;-81
2021/03/11 00:31:58;;;;;;;14.93;10.27;;;9.70;88.70;;;;;;5032360;28;20474;-81
2021/03/11 00:34:25;;;;;;;13.80;10.30;;;9.80;88.70;;;;;;5033054;28;20453;-80
2021/03/11 00:36:52;;;;;;;16.80;10.47;;;9.80;88.30;;;;;;5038902;28;20572;-81
2021/03/11 00:39:19;;;;;;;16.43;10.40;;;9.80;88.50;;;;;;5036694;28;20533;-81
2021/03/11 00:41:45;;;;;;;17.33;10.47;;;9.80;88.80;;;;;;5037402;28;20530;-81
2021/03/11 00:44:13;;;;;;;14.57;10.00;;;9.80;88.90;;;;;;5039253;28;20431;-81
2021/03/11 00:46:39;;;;;;;21.50;11.27;;;9.90;88.90;;;;;;5024409;28;20546;-81
2021/03/11 00:49:06;;;;;;;14.83;10.23;;;10.00;87.60;;;;;;5034325;28;20459;-80
2021/03/11 00:51:33;;;;;;;13.23;9.70;;;9.90;88.50;;;;;;5048261;28;20831;-81
2021/03/11 00:53:59;;;;;;;15.60;10.67;;;9.90;88.80;;;;;;5034056;28;20460;-80
2021/03/11 00:56:25;;;;;;;17.93;11.30;;;9.90;88.70;;;;;;5035465;28;20492;-81
2021/03/11 00:58:51;;;;;;;15.80;10.77;;;10.00;87.40;;;;;;5034261;28;20484;-81
2021/03/11 01:01:19;;;;;;;14.13;10.03;;;10.00;87.30;;;;;;5034421;28;20464;-81
2021/03/11 01:03:45;;;;;;;14.87;10.13;;;10.00;87.20;;;;;;5034416;28;20542;-80
2021/03/11 01:06:11;;;;;;;18.20;11.00;;;10.00;87.80;;;;;;5036250;28;20445;-80
2021/03/11 01:08:38;;;;;;;15.53;9.53;;;9.90;89.00;;;;;;5034620;28;20466;-80
2021/03/11 01:11:05;;;;;;;16.50;10.67;;;9.90;89.30;;;;;;5034055;28;20485;-80
2021/03/11 01:13:31;;;;;;;15.77;10.80;;;9.80;89.50;;;;;;5035210;28;20456;-81
2021/03/11 01:15:58;;;;;;;15.93;11.07;;;10.00;88.40;;;;;;5035046;28;20517;-81
2021/03/11 01:18:26;;;;;;;15.30;10.63;;;9.90;89.70;;;;;;5034491;28;20493;-81
2021/03/11 01:20:52;;;;;;;17.07;11.20;;;10.00;88.60;;;;;;5035116;28;20793;-81
2021/03/11 01:23:19;;;;;;;16.77;11.07;;;10.00;88.60;;;;;;5034038;28;20485;-79
2021/03/11 01:25:45;;;;;;;14.53;9.60;;;10.10;88.60;;;;;;5035204;28;20569;-79
2021/03/11 01:28:11;;;;;;;14.63;9.40;;;10.00;88.80;;;;;;5031452;28;20545;-79
2021/03/11 01:30:38;;;;;;;17.90;11.00;;;10.00;88.70;;;;;;5017138;28;20450;-80
2021/03/11 01:33:05;;;;;;;16.83;10.50;;;9.90;89.90;;;;;;5024359;28;20960;-80
2021/03/11 01:35:32;;;;;;;14.83;9.73;;;10.00;89.00;;;;;;5035800;28;20581;-80
2021/03/11 01:37:59;;;;;;;17.50;9.83;;;10.10;89.00;;;;;;5026896;28;20500;-80
2021/03/11 01:40:25;;;;;;;17.53;9.67;;;10.10;89.00;;;;;;5039712;28;20476;-80
2021/03/11 01:42:51;;;;;;;17.43;10.07;;;10.00;89.10;;;;;;5042280;28;20454;-80
2021/03/11 01:45:18;;;;;;;15.47;9.30;;;10.10;89.30;;;;;;5027617;28;20451;-80
2021/03/11 01:47:45;;;;;;;14.50;8.07;;;10.00;89.40;;;;;;5020260;28;20451;-80
2021/03/11 01:50:13;;;;;;;12.93;8.30;;;10.00;89.70;;;;;;5045523;28;20529;-79
2021/03/11 01:52:42;;;;;;;9.90;6.47;;;10.00;90.10;;;;;;5039786;28;20461;-80
2021/03/11 01:55:10;;;;;;;11.97;7.27;;;10.00;90.30;;;;;;5038530;28;20470;-80
2021/03/11 01:57:36;;;;;;;11.30;7.40;;;10.10;90.40;;;;;;5028095;28;20544;-80
2021/03/11 02:00:07;;;;;;;12.00;7.77;;;10.10;90.50;;;;;;5033241;28;20448;-81
2021/03/11 02:02:35;;;;;;;11.93;6.73;;;10.10;90.60;;;;;;5033563;28;20540;-81
2021/03/11 02:05:01;;;;;;;9.10;5.40;;;9.70;91.60;;;;;;5033826;28;20486;-80
2021/03/11 02:07:27;;;;;;;8.80;5.27;;;10.10;91.60;;;;;;5034083;28;20417;-80
2021/03/11 02:09:55;;;;;;;7.87;5.20;;;10.10;91.80;;;;;;5035230;28;20489;-80
2021/03/11 02:12:27;;;;;;;9.90;4.90;;;10.10;91.90;;;;;;5034820;28;20935;-80
2021/03/11 02:15:02;;;;;;;9.33;4.93;;;10.00;92.10;;;;;;5031580;28;20478;-83
2021/03/11 02:17:32;;;;;;;9.27;5.20;;;10.10;92.20;;;;;;5035923;28;21178;-81
2021/03/11 02:20:12;;;;;;;8.30;4.70;;;10.20;92.30;;;;;;5033305;28;20594;-81
2021/03/11 02:22:50;;;;;;;7.60;4.03;;;10.30;92.20;;;;;;5036965;28;20438;-82
2021/03/11 02:25:23;;;;;;;13.43;4.87;;;10.20;92.20;;;;;;5042613;28;20480;-81
2021/03/11 02:27:59;;;;;;;8.80;5.10;;;10.10;92.40;;;;;;5033597;28;20792;-81
2021/03/11 02:30:27;;;;;;;8.10;4.70;;;10.10;92.50;;;;;;5048630;28;20430;-81
2021/03/11 02:32:55;;;;;;;8.03;5.73;;;10.10;92.60;;;;;;5044344;28;20873;-78
2021/03/11 02:35:22;;;;;;;8.13;5.20;;;10.20;92.50;;;;;;5013237;28;20459;-79
2021/03/11 02:37:51;;;;;;;7.90;5.30;;;10.10;92.50;;;;;;5015725;28;20465;-80
2021/03/11 02:40:22;;;;;;;9.80;5.33;;;10.10;92.60;;;;;;5033618;28;20450;-80
2021/03/11 02:42:50;;;;;;;8.77;5.43;;;10.20;92.60;;;;;;5025862;28;20451;-80
2021/03/11 02:45:20;;;;;;;9.27;5.83;;;10.20;92.40;;;;;;5038662;28;20443;-79
2021/03/11 02:47:47;;;;;;;8.13;5.43;;;10.10;92.60;;;;;;5032734;28;20864;-80
2021/03/11 02:50:15;;;;;;;10.17;5.60;;;10.10;92.30;;;;;;5016375;28;20458;-80
2021/03/11 02:52:42;;;;;;;8.90;6.23;;;10.10;92.30;;;;;;5034038;28;20457;-80
2021/03/11 02:55:11;;;;;;;11.27;5.77;;;10.20;92.20;;;;;;5052355;28;20457;-80
2021/03/11 02:57:38;;;;;;;9.50;5.57;;;10.10;92.20;;;;;;5044838;28;20487;-80
2021/03/11 03:00:07;;;;;;;10.00;6.20;;;10.10;92.20;;;;;;5033441;28;20779;-80
2021/03/11 03:02:34;;;;;;;10.53;6.20;;;10.10;92.10;;;;;;5033348;28;20977;-80
2021/03/11 03:05:03;;;;;;;8.93;6.10;;;10.10;91.90;;;;;;5037923;28;21017;-80
2021/03/11 03:07:31;;;;;;;12.43;6.50;;;10.10;91.70;;;;;;5036464;28;20545;-80
2021/03/11 03:09:58;;;;;;;10.77;7.17;;;10.10;91.50;;;;;;5036774;28;20569;-80
2021/03/11 03:12:25;;;;;;;9.67;6.50;;;10.10;91.50;;;;;;5035281;28;20513;-80
2021/03/11 03:14:54;;;;;;;9.70;6.60;;;10.20;91.50;;;;;;5035203;28;20461;-80
2021/03/11 03:17:21;;;;;;;12.93;6.70;;;10.20;91.70;;;;;;5034140;28;20485;-80
2021/03/11 03:19:50;;;;;;;14.33;6.10;;;10.10;91.60;;;;;;5032355;28;20448;-80
2021/03/11 03:22:19;;;;;;;10.20;7.30;;;10.10;91.50;;;;;;5033700;28;20424;-80
2021/03/11 03:24:47;;;;;;;10.57;7.10;;;10.20;91.30;;;;;;5033138;28;20463;-81
2021/03/11 03:27:14;;;;;;;11.03;6.90;;;10.20;91.00;;;;;;5033226;28;20446;-81
2021/03/11 03:29:41;;;;;;;8.97;6.07;;;10.20;90.90;;;;;;5028839;28;20471;-80
2021/03/11 03:32:08;;;;;;;9.77;6.57;;;10.10;91.30;;;;;;5013391;28;20466;-80
2021/03/11 03:34:34;;;;;;;11.63;6.13;;;10.20;91.50;;;;;;5025107;28;20460;-80
2021/03/11 03:37:01;;;;;;;9.73;6.43;;;10.20;91.90;;;;;;5033555;28;20507;-80
2021/03/11 03:39:28;;;;;;;8.67;5.83;;;10.20;92.40;;;;;;5031493;28;20555;-80
2021/03/11 03:41:56;;;;;;;10.77;7.10;;;10.20;92.60;;;;;;5033671;28;20483;-80
2021/03/11 03:44:26;;;;;;;8.87;5.80;;;10.20;92.80;;;;;;5033008;28;20436;-81
2021/03/11 03:46:53;;;;;;;10.27;5.57;;;10.10;92.90;;;;;;5035273;28;20429;-80
2021/03/11 03:49:20;;;;;;;9.90;6.23;;;10.10;92.90;;;;;;5029384;28;20481;-80
2021/03/11 03:51:49;;;;;;;10.03;6.40;;;10.10;93.10;;;;;;5034535;28;20537;-80
2021/03/11 03:54:20;;;;;;;9.13;5.70;;;10.20;93.30;;;;;;5032757;28;20428;-80
2021/03/11 03:56:54;;;;;;;8.93;5.40;;;10.10;93.00;;;;;;5032924;28;20860;-80
2021/03/11 03:59:24;;;;;;;10.73;5.80;;;10.10;93.10;;;;;;5025608;28;20819;-80
2021/03/11 04:01:56;;;;;;;8.33;5.40;;;10.20;93.20;;;;;;5033387;28;20454;-80
2021/03/11 04:04:25;;;;;;;9.70;5.40;;;10.20;93.00;;;;;;5032374;28;20873;-81
2021/03/11 04:06:52;;;;;;;8.10;5.23;;;10.30;93.20;;;;;;5034159;28;20454;-80
2021/03/11 04:09:22;;;;;;;12.40;6.67;;;10.30;93.40;;;;;;5025723;28;20977;-80
2021/03/11 04:11:50;;;;;;;7.50;4.87;;;10.40;93.60;;;;;;5034326;28;20476;-80
2021/03/11 04:14:18;;;;;;;9.33;4.97;;;10.40;93.80;;;;;;5033934;28;20432;-80
2021/03/11 04:16:46;;;;;;;6.27;3.97;;;10.40;94.30;;;;;;5036045;28;20513;-80
2021/03/11 04:19:13;;;;;;;7.80;4.10;;;10.50;94.90;;;;;;5025746;28;20603;-80
2021/03/11 04:21:41;;;;;;;5.40;3.40;;;10.50;95.40;;;;;;5033931;28;20467;-80
2021/03/11 04:24:18;;;;;;;5.50;3.67;;;10.60;95.60;;;;;;5032240;28;20462;-79
2021/03/11 04:26:45;;;;;;;7.07;3.47;;;10.70;95.80;;;;;;5031917;28;20583;-79
2021/03/11 04:29:13;;;;;;;6.30;3.20;;;10.80;96.00;;;;;;5025981;28;20496;-79
2021/03/11 04:31:40;;;;;;;6.93;3.40;;;10.80;96.00;;;;;;5032101;28;20463;-80
2021/03/11 04:34:08;;;;;;;8.00;3.50;;;10.80;96.20;;;;;;5031442;28;20584;-79
2021/03/11 04:36:35;;;;;;;11.73;4.30;;;10.80;96.30;;;;;;5032861;28;20474;-80
2021/03/11 04:39:02;;;;;;;5.43;2.73;;;10.80;96.50;;;;;;5023988;28;20560;-80
2021/03/11 04:41:28;;;;;;;7.50;3.83;;;10.80;96.50;;;;;;5032125;28;20952;-80
2021/03/11 04:43:55;;;;;;;6.80;3.93;;;10.90;96.60;;;;;;5031468;28;20904;-81
2021/03/11 04:46:23;;;;;;;5.20;3.40;;;10.90;96.60;;;;;;5031812;28;20576;-79
2021/03/11 04:48:50;;;;;;;8.00;3.40;;;10.90;96.70;;;;;;5030447;28;20473;-79
2021/03/11 04:51:17;;;;;;;7.03;3.80;;;11.00;96.80;;;;;;5031469;28;20479;-79
2021/03/11 04:53:45;;;;;;;6.47;3.17;;;11.00;96.90;;;;;;5031914;28;20452;-79
2021/03/11 04:56:11;;;;;;;5.40;2.90;;;11.00;97.00;;;;;;5031749;28;20704;-79
2021/03/11 04:58:38;;;;;;;6.27;3.30;;;11.00;97.10;;;;;;5028283;28;20470;-79
2021/03/11 05:01:09;;;;;;;5.20;3.10;;;11.00;97.30;;;;;;5031213;28;20747;-79
2021/03/11 05:03:38;;;;;;;5.43;3.00;;;10.90;97.40;;;;;;5031151;28;21180;-79
2021/03/11 05:06:04;;;;;;;5.80;2.80;;;10.90;97.50;;;;;;5030820;28;20444;-79
2021/03/11 05:08:31;;;;;;;7.73;3.10;;;10.90;97.80;;;;;;5032223;28;20451;-79
2021/03/11 05:10:57;;;;;;;5.13;3.30;;;10.90;98.00;;;;;;5051370;28;20450;-79
2021/03/11 05:13:24;;;;;;;7.20;3.50;;;10.90;97.90;;;;;;5051201;28;20503;-79
2021/03/11 05:15:50;;;;;;;6.00;3.10;;;11.00;98.00;;;;;;5031547;28;20461;-79
2021/03/11 05:18:17;;;;;;;8.17;3.80;;;11.00;98.00;;;;;;5028581;28;20497;-79
2021/03/11 05:20:44;;;;;;;6.73;3.43;;;11.00;98.10;;;;;;5033685;28;20428;-79
2021/03/11 05:23:12;;;;;;;4.87;2.80;;;11.00;98.20;;;;;;5040655;28;20949;-79
2021/03/11 05:25:38;;;;;;;7.00;3.10;;;11.00;98.20;;;;;;5040447;28;20499;-79
2021/03/11 05:28:05;;;;;;;4.50;2.80;;;11.00;98.40;;;;;;5040056;28;20483;-79
2021/03/11 05:30:32;;;;;;;5.47;3.13;;;11.00;98.40;;;;;;5039085;28;20537;-79
2021/03/11 05:32:58;;;;;;;7.40;3.50;;;10.90;98.50;;;;;;5039672;28;20500;-79
2021/03/11 05:35:25;;;;;;;5.87;2.87;;;10.90;98.70;;;;;;5039743;28;20527;-79
2021/03/11 05:37:52;;;;;;;5.40;3.07;;;10.90;98.80;;;;;;5045771;28;20580;-81
2021/03/11 05:40:19;;;;;;;5.70;3.30;;;10.90;99.00;;;;;;5035906;28;20462;-81
2021/03/11 05:42:47;;;;;;;6.10;3.40;;;10.90;99.10;;;;;;5035281;28;20464;-81
2021/03/11 05:45:13;;;;;;;4.90;3.50;;;10.80;99.20;;;;;;5035391;28;20459;-79
2021/03/11 05:47:43;;;;;;;6.93;2.87;;;10.80;99.30;;;;;;5036417;28;20457;-79
2021/03/11 05:50:11;;;;;;;6.60;3.63;;;10.80;99.60;;;;;;5017385;28;20546;-80
2021/03/11 05:52:38;;;;;;;5.90;3.20;;;10.80;99.70;;;;;;5035970;28;20522;-80
2021/03/11 05:55:07;;;;;;;5.63;2.70;;;10.90;99.80;;;;;;5035290;28;20520;-79
2021/03/11 05:57:34;;;;;;;7.40;3.07;;;10.80;99.90;;;;;;5031091;28;20457;-79
2021/03/11 06:00:00;;;;;;;6.43;3.43;;;10.80;99.90;;;;;;5034612;28;20454;-79
2021/03/11 06:02:28;;;;;;;6.40;3.33;;;10.90;99.90;;;;;;5034213;28;20545;-80
2021/03/11 06:04:55;;;;;;;6.10;3.30;;;11.00;99.90;;;;;;5035017;28;20433;-80
2021/03/11 06:07:22;;;;;;;3.97;2.50;;;11.00;99.90;;;;;;5030110;28;20956;-80
2021/03/11 06:09:50;;;;;;;5.50;3.30;;;11.00;99.90;;;;;;5031245;28;20457;-80
2021/03/11 06:12:17;;;;;;;11.03;3.53;;;11.00;99.90;;;;;;5027055;28;20436;-80
2021/03/11 06:14:49;;;;;;;5.70;3.17;;;11.00;99.90;;;;;;5035406;28;20424;-80
2021/03/11 06:17:16;;;;;;;5.67;3.07;;;11.00;99.90;;;;;;5033815;28;20486;-80
2021/03/11 06:19:43;;;;;;;6.37;2.90;;;11.00;99.90;;;;;;5034598;28;20486;-79
2021/03/11 06:22:10;;;;;;;6.47;3.47;;;11.00;99.90;;;;;;5034967;28;20454;-80
2021/03/11 06:24:36;;;;;;;6.67;3.30;;;11.00;99.90;;;;;;5034447;28;20807;-81
2021/03/11 06:27:02;;;;;;;5.90;3.60;;;11.00;99.90;;;;;;5029289;28;20520;-80
2021/03/11 06:29:37;;;;;;;5.27;2.90;;;11.00;99.90;;;;;;5035242;28;20466;-79
2021/03/11 06:32:04;;;;;;;4.10;2.73;;;11.00;99.90;;;;;;5034250;28;20445;-80
2021/03/11 06:34:36;;;;;;;6.43;3.13;;;10.90;99.90;;;;;;5034914;28;20428;-80
2021/03/11 06:37:03;;;;;;;6.83;3.37;;;11.00;99.90;;;;;;5026997;28;20999;-80
2021/03/11 06:39:31;;;;;;;8.70;3.13;;;11.00;99.90;;;;;;5033592;28;20448;-80
2021/03/11 06:42:00;;;;;;;8.13;2.93;;;11.00;99.90;;;;;;5015011;28;20451;-80
2021/03/11 06:44:41;;;;;;;4.50;2.57;;;11.10;99.90;;;;;;5019564;28;20519;-80
2021/03/11 06:47:09;;;;;;;4.30;2.70;;;11.20;99.90;;;;;;5026019;28;20429;-79
2021/03/11 06:49:54;;;;;;;5.70;2.83;;;11.30;99.90;;;;;;5033945;28;20496;-79
2021/03/11 06:52:20;;;;;;;9.07;3.60;;;11.30;99.80;;;;;;5035876;28;20449;-80
2021/03/11 06:54:54;;;;;;;6.10;3.60;;;11.30;99.80;;;;;;5027846;28;20424;-80
2021/03/11 06:57:31;;;;;;;5.33;2.63;;;11.40;99.50;;;;;;5034431;28;20460;-80
2021/03/11 07:00:00;;;;;;;6.07;2.63;;;11.40;99.50;;;;;;5039803;28;20454;-79
2021/03/11 07:02:27;;;;;;;6.47;2.67;;;11.40;99.30;;;;;;5032412;28;20432;-79
2021/03/11 07:04:55;;;;;;;6.07;2.77;;;11.50;99.10;;;;;;5033350;28;20428;-79
2021/03/11 07:07:22;;;;;;;6.70;3.00;;;11.60;99.00;;;;;;5032480;28;20677;-79
2021/03/11 07:09:49;;;;;;;5.50;3.30;;;11.60;99.00;;;;;;5032130;28;20482;-79
2021/03/11 07:12:16;;;;;;;5.40;2.30;;;11.50;98.90;;;;;;5031808;28;20914;-79
2021/03/11 07:14:43;;;;;;;9.57;2.27;;;11.50;98.90;;;;;;5027945;28;20517;-80
2021/03/11 07:17:21;;;;;;;4.53;2.47;;;11.60;98.80;;;;;;5033193;28;20469;-79
2021/03/11 07:20:07;;;;;;;4.77;2.40;;;11.60;98.80;;;;;;5033610;28;20973;-80
2021/03/11 07:22:33;;;;;;;5.17;2.43;;;11.70;98.80;;;;;;5032368;28;20432;-80
2021/03/11 07:24:59;;;;;;;3.47;1.70;;;11.70;98.80;;;;;;5032657;28;20525;-80
2021/03/11 07:27:37;;;;;;;6.50;2.30;;;11.80;98.80;;;;;;5033487;28;20452;-80
2021/03/11 07:30:05;;;;;;;4.57;2.00;;;11.90;98.80;;;;;;5032484;28;20449;-78
2021/03/11 07:32:33;;;;;;;6.00;2.97;;;11.90;98.70;;;;;;5031528;28;20460;-78
2021/03/11 07:35:00;;;;;;;5.37;2.30;;;11.90;98.80;;;;;;5036773;28;20529;-77
2021/03/11 07:37:28;;;;;;;6.53;2.27;;;11.90;98.90;;;;;;5040906;28;20525;-78
2021/03/11 07:39:58;;;;;;;3.97;1.93;;;12.00;98.90;;;;;;5029893;28;20454;-78
2021/03/11 07:42:25;;;;;;;4.57;2.27;;;12.00;98.90;;;;;;5047214;28;20473;-78
2021/03/11 07:44:51;;;;;;;3.87;2.13;;;12.00;98.90;;;;;;5035179;28;20452;-79
2021/03/11 07:47:18;;;;;;;3.87;1.70;;;12.00;99.00;;;;;;5040808;28;20860;-80
2021/03/11 07:49:46;;;;;;;4.33;2.10;;;12.00;99.10;;;;;;5030506;28;20486;-77
2021/03/11 07:52:12;;;;;;;6.60;2.20;;;12.10;99.20;;;;;;5037103;28;20440;-78
2021/03/11 07:54:39;;;;;;;4.20;1.80;;;12.10;99.10;;;;;;5033510;28;20502;-78
2021/03/11 07:57:06;;;;;;;3.57;1.90;;;12.20;99.10;;;;;;5032770;28;20858;-78
2021/03/11 07:59:34;;;;;;;4.03;2.00;;;12.30;99.10;;;;;;5029110;28;20460;-79
2021/03/11 08:02:06;;;;;;;3.53;1.60;;;12.30;99.00;;;;;;5013861;28;20429;-79
2021/03/11 08:04:35;;;;;;;3.83;1.50;;;12.30;99.00;;;;;;5020014;28;20458;-79
2021/03/11 08:07:22;;;;;;;3.93;1.97;;;12.30;99.00;;;;;;5033285;28;20450;-79
2021/03/11 08:09:50;;;;;;;4.83;2.03;;;12.40;99.10;;;;;;5029239;28;20470;-79
2021/03/11 08:12:28;;;;;;;4.03;1.80;;;12.50;98.90;;;;;;5029059;28;20543;-79
2021/03/11 08:14:55;;;;;;;4.03;1.80;;;12.50;98.80;;;;;;5052386;28;20524;-79
2021/03/11 08:17:42;;;;;;;5.73;2.03;;;12.60;98.80;;;;;;5041629;28;20539;-79
2021/03/11 08:20:30;;;;;;;5.43;1.97;;;12.60;98.60;;;;;;5033777;28;20566;-78
2021/03/11 08:23:04;;;;;;;3.77;1.73;;;12.60;98.90;;;;;;5031408;28;20784;-78
2021/03/11 08:25:41;;;;;;;4.60;1.70;;;12.70;98.50;;;;;;5029765;28;20471;-78
2021/03/11 08:28:47;;;;;;;5.70;1.90;;;12.80;98.30;;;;;;5026083;28;20857;-76
2021/03/11 08:31:14;;;;;;;7.60;1.60;;;12.90;98.00;;;;;;5022615;28;20489;-81
2021/03/11 08:33:51;;;;;;;5.13;2.40;;;13.00;97.90;;;;;;5030797;28;20604;-85
2021/03/11 08:36:29;;;;;;;4.40;1.83;;;13.00;97.70;;;;;;5031386;28;20454;-80
2021/03/11 08:38:57;;;;;;;3.93;1.80;;;13.10;97.60;;;;;;5030855;28;20456;-80
2021/03/11 08:41:36;;;;;;;4.40;1.97;;;13.20;97.60;;;;;;5038252;28;21045;-81
2021/03/11 08:44:03;;;;;;;4.40;1.90;;;13.20;97.40;;;;;;5032510;28;20459;-81
2021/03/11 08:46:51;;;;;;;4.40;1.80;;;13.30;97.50;;;;;;5036411;28;20457;-81
2021/03/11 08:49:42;;;;;;;4.87;1.80;;;13.30;97.30;;;;;;5036650;28;20456;-80
2021/03/11 08:52:44;;;;;;;3.30;1.50;;;13.50;97.50;;;;;;5025744;28;20595;-81
2021/03/11 08:55:33;;;;;;;6.80;1.93;;;13.40;97.20;;;;;;5034468;28;20458;-80
2021/03/11 08:58:01;;;;;;;3.87;1.67;;;13.50;97.50;;;;;;5041805;28;20556;-80
2021/03/11 09:00:59;;;;;;;5.13;1.57;;;13.50;97.70;;;;;;5044133;28;20454;-85
2021/03/11 09:03:39;;;;;;;4.20;1.60;;;13.60;97.90;;;;;;5051407;28;20492;-83
2021/03/11 09:06:07;;;;;;;7.60;2.30;;;13.70;97.80;;;;;;5046497;28;20861;-82
2021/03/11 09:08:34;;;;;;;3.43;1.50;;;13.70;98.00;;;;;;5046893;28;20806;-82
2021/03/11 09:11:10;;;;;;;6.67;1.70;;;13.80;98.00;;;;;;5057323;28;20439;-81
2021/03/11 09:13:39;;;;;;;3.40;1.70;;;13.80;97.90;;;;;;5046121;28;20492;-83
2021/03/11 09:16:05;;;;;;;4.00;1.83;;;13.90;97.90;;;;;;5041709;28;20503;-80
2021/03/11 09:18:32;;;;;;;7.20;1.90;;;14.00;97.80;;;;;;5054366;22;21489;-88
2021/03/11 09:20:59;;;;;;;4.40;1.40;;;14.00;97.60;;;;;;4990158;28;20444;-87
2021/03/11 09:23:37;;;;;;;3.90;1.50;;;14.00;97.60;;;;;;4999422;28;20478;-85
2021/03/11 09:26:03;;;;;;;3.53;1.47;;;14.10;97.50;;;;;;4997218;28;20431;-86
2021/03/11 09:28:31;;;;;;;3.60;1.33;;;14.10;97.30;;;;;;4980822;28;20415;-85
2021/03/11 09:30:58;;;;;;;6.80;1.60;;;14.20;97.30;;;;;;4996289;28;20430;-84
2021/03/11 09:33:24;;;;;;;8.73;1.50;;;14.20;97.00;;;;;;4999902;28;20456;-85
2021/03/11 09:35:51;;;;;;;3.40;1.40;;;14.30;97.00;;;;;;4992464;28;20450;-87
2021/03/11 09:38:20;;;;;;;4.10;1.50;;;14.40;96.90;;;;;;4982445;28;20462;-85
2021/03/11 09:40:49;;;;;;;3.37;1.67;;;14.40;96.90;;;;;;4965082;28;20420;-89
2021/03/11 09:43:20;;;;;;;4.03;1.70;;;14.50;96.80;;;;;;4971259;28;20452;-83
2021/03/11 09:45:50;;;;;;;2.90;1.37;;;14.50;96.60;;;;;;4993623;28;20505;-85
2021/03/11 09:48:20;;;;;;;2.97;1.40;;;14.70;96.60;;;;;;4990847;28;20472;-86
2021/03/11 09:51:03;;;;;;;4.13;1.63;;;14.60;96.30;;;;;;4983206;28;20937;-88
2021/03/11 09:53:38;;;;;;;3.87;1.70;;;14.60;96.40;;;;;;4981234;28;20575;-86
2021/03/11 09:56:06;;;;;;;3.57;1.43;;;14.70;96.30;;;;;;4971312;28;20435;-87
2021/03/11 09:58:32;;;;;;;3.30;1.60;;;14.80;96.20;;;;;;4964562;28;20501;-86
2021/03/11 10:01:00;;;;;;;3.50;1.13;;;14.80;96.30;;;;;;4984671;28;20464;-86
2021/03/11 10:03:27;;;;;;;2.90;1.20;;;14.70;96.30;;;;;;4984868;28;20439;-86
2021/03/11 10:05:59;;;;;;;4.30;1.47;;;14.80;96.50;;;;;;4983344;28;20431;-85
2021/03/11 10:08:37;;;;;;;4.10;1.97;;;14.70;96.60;;;;;;4982060;28;20435;-87
2021/03/11 10:11:09;;;;;;;3.63;1.13;;;14.70;96.80;;;;;;4982065;28;20484;-87
2021/03/11 10:13:38;;;;;;;6.50;3.53;;;14.70;96.90;;;;;;4981118;28;20423;-84
2021/03/11 10:16:06;;;;;;;3.30;1.43;;;14.80;97.00;;;;;;4980791;28;20431;-86
2021/03/11 10:18:33;;;;;;;2.80;1.27;;;14.80;97.00;;;;;;4980255;28;20455;-85
2021/03/11 10:21:05;;;;;;;2.90;1.30;;;15.00;97.00;;;;;;4981239;28;20474;-84
2021/03/11 10:23:32;;;;;;;3.17;1.30;;;15.20;96.70;;;;;;4984192;28;20428;-87
2021/03/11 10:26:16;;;;;;;3.33;1.40;;;15.40;96.60;;;;;;4980850;28;20456;-86
2021/03/11 10:28:43;;;;;;;4.60;1.60;;;15.40;96.50;;;;;;4980523;28;20868;-85
2021/03/11 10:31:12;;;;;;;2.90;1.20;;;15.30;96.60;;;;;;4980393;28;20443;-88
2021/03/11 10:33:39;;;;;;;2.60;1.00;;;15.40;96.70;;;;;;4980451;28;20453;-87
2021/03/11 10:36:14;;;;;;;3.07;1.20;;;15.40;96.70;;;;;;4980828;28;20461;-85
2021/03/11 10:38:42;;;;;;;2.83;1.23;;;15.30;97.10;;;;;;4980214;28;20580;-86
2021/03/11 10:41:16;;;;;;;3.53;1.20;;;15.30;97.50;;;;;;4982655;28;20461;-84
2021/03/11 10:43:43;;;;;;;3.30;1.37;;;15.30;97.50;;;;;;4983174;28;20415;-84
2021/03/11 10:46:16;;;;;;;3.67;1.20;;;15.30;97.80;;;;;;4982556;28;20462;-86
2021/03/11 10:48:50;;;;;;;3.40;1.30;;;15.30;98.00;;;;;;4989426;28;20662;-84
2021/03/11 10:51:18;;;;;;;5.33;1.60;;;15.30;98.00;;;;;;5005536;28;21037;-85
2021/03/11 10:53:45;;;;;;;4.00;1.70;;;15.40;98.00;;;;;;4993356;28;20424;-85
2021/03/11 10:56:12;;;;;;;4.30;1.30;;;15.30;98.20;;;;;;4994098;28;20440;-84
2021/03/11 10:58:40;;;;;;;3.40;1.40;;;15.30;98.50;;;;;;4987402;28;20512;-86
2021/03/11 11:01:08;;;;;;;2.73;1.17;;;15.10;98.70;;;;;;4985038;28;20946;-86
2021/03/11 11:03:36;;;;;;;2.50;0.90;;;15.10;99.10;;;;;;4982777;28;20454;-85
2021/03/11 11:06:04;;;;;;;4.90;1.57;;;15.10;99.30;;;;;;4983696;28;20467;-86
2021/03/11 11:08:31;;;;;;;5.30;2.03;;;15.00;99.80;;;;;;4985735;28;20488;-87
2021/03/11 11:10:57;;;;;;;3.67;1.70;;;14.90;99.90;;;;;;4985176;28;20465;-85
2021/03/11 11:13:24;;;;;;;3.37;1.20;;;14.80;99.90;;;;;;4987006;28;20452;-84
2021/03/11 11:15:50;;;;;;;8.33;1.50;;;14.80;99.90;;;;;;4989046;28;20475;-84
2021/03/11 11:18:17;;;;;;;3.50;1.30;;;14.80;99.90;;;;;;4983370;28;20486;-87
2021/03/11 11:20:44;;;;;;;2.40;0.83;;;14.70;99.90;;;;;;4980550;28;20422;-86
2021/03/11 11:23:11;;;;;;;3.00;1.20;;;14.50;99.90;;;;;;4984605;28;20460;-86
2021/03/11 11:25:37;;;;;;;9.20;1.40;;;14.40;99.90;;;;;;4983874;28;20416;-83
2021/03/11 11:28:05;;;;;;;3.77;1.97;;;14.40;99.90;;;;;;4986770;28;20458;-84
2021/03/11 11:30:35;;;;;;;2.83;1.00;;;14.30;99.90;;;;;;4985143;28;20447;-84
2021/03/11 11:33:01;;;;;;;10.77;3.00;;;14.20;99.90;;;;;;4991298;28;20455;-86
2021/03/11 11:35:30;;;;;;;6.10;2.03;;;14.30;99.90;;;;;;4986732;28;20790;-85
2021/03/11 11:37:58;;;;;;;9.37;3.17;;;14.20;99.90;;;;;;4988081;28;20482;-84
2021/03/11 11:40:24;;;;;;;3.50;1.60;;;14.10;99.90;;;;;;4989456;28;20471;-85
2021/03/11 11:42:53;;;;;;;3.30;1.43;;;14.30;99.90;;;;;;4993338;28;20568;-82
2021/03/11 11:45:20;;;;;;;4.23;2.57;;;14.20;99.90;;;;;;4991033;28;20427;-85
2021/03/11 11:47:46;;;;;;;3.70;1.73;;;14.30;99.90;;;;;;4988304;28;20551;-86
2021/03/11 11:50:13;;;;;;;3.90;1.20;;;14.30;99.90;;;;;;4982512;28;20508;-82
2021/03/11 11:52:41;;;;;;;3.33;1.63;;;14.20;99.90;;;;;;4973394;28;20447;-82
2021/03/11 11:55:10;;;;;;;6.13;1.60;;;14.20;99.90;;;;;;4990707;28;20484;-79
2021/03/11 11:57:37;;;;;;;3.33;1.40;;;14.20;99.90;;;;;;4981963;28;20507;-80
2021/03/11 12:00:05;;;;;;;4.17;1.40;;;14.20;99.90;;;;;;4980009;28;21012;-83
2021/03/11 12:02:31;;;;;;;5.17;2.40;;;14.10;99.90;;;;;;4987415;28;20445;-85
2021/03/11 12:04:58;;;;;;;3.60;1.10;;;14.10;99.90;;;;;;4994502;28;20434;-87
2021/03/11 12:07:24;;;;;;;2.73;1.00;;;14.10;99.90;;;;;;4986407;28;20552;-84
2021/03/11 12:09:52;;;;;;;3.53;1.40;;;14.10;99.90;;;;;;4986532;28;20451;-87
2021/03/11 12:12:19;;;;;;;2.57;1.13;;;14.20;99.90;;;;;;4982025;28;20951;-86
2021/03/11 12:14:46;;;;;;;2.93;1.33;;;14.30;99.90;;;;;;4981494;28;20420;-85
2021/03/11 12:17:12;;;;;;;3.70;1.20;;;14.40;99.90;;;;;;4980672;28;20546;-87
2021/03/11 12:19:39;;;;;;;2.90;1.23;;;14.40;99.90;;;;;;4985166;28;20508;-83
2021/03/11 12:22:05;;;;;;;3.37;1.13;;;14.50;99.90;;;;;;4992997;28;20438;-82
2021/03/11 12:24:31;;;;;;;7.07;1.40;;;14.40;99.90;;;;;;4988495;28;20460;-83
2021/03/11 12:26:57;;;;;;;3.97;1.10;;;14.30;99.90;;;;;;4986522;28;20463;-84
2021/03/11 12:29:25;;;;;;;3.73;1.10;;;14.30;99.90;;;;;;4981500;28;20470;-81
2021/03/11 12:31:51;;;;;;;3.30;1.33;;;14.30;99.90;;;;;;4995135;28;20438;-84
2021/03/11 12:34:17;;;;;;;3.27;1.10;;;14.30;99.90;;;;;;4990406;28;20491;-84
2021/03/11 12:36:44;;;;;;;3.37;1.10;;;14.30;99.90;;;;;;4994020;28;20520;-84
2021/03/11 12:39:11;;;;;;;2.30;0.70;;;14.40;99.90;;;;;;4997861;28;20443;-85
2021/03/11 12:41:41;;;;;;;2.53;0.90;;;14.40;99.90;;;;;;4988182;28;20468;-84
2021/03/11 12:44:12;;;;;;;2.87;1.37;;;14.50;99.90;;;;;;5000009;28;20437;-86
2021/03/11 12:46:39;;;;;;;3.10;1.27;;;14.50;99.90;;;;;;4999831;28;20450;-86
2021/03/11 12:49:05;;;;;;;3.60;1.20;;;14.50;99.90;;;;;;4969314;28;20492;-86
2021/03/11 12:51:32;;;;;;;2.63;1.23;;;14.50;99.90;;;;;;4972908;28;20462;-86
2021/03/11 12:54:00;;;;;;;2.60;1.03;;;14.60;99.90;;;;;;4967731;28;21031;-86